Terminal Aerodrome Forecast
Issued by NWS

Home | Current Version | Previous Version | Graphics & Text | Print | Product List | Glossary On
Versions: 1 2 3 4 5 6 7 8 9 10 11 12 13 14 15 16 17 18 19 20 21
000
FTUS43 KGRB 262325
TAFRHI
TAF
KRHI 262325Z 2700/2724 34007KT 4SM -DZ BR OVC005
      TEMPO 2700/2704 2SM -DZ BR OVC003
     FM271000 32007KT 3SM -FZRA BR OVC004
      TEMPO 2712/2714 3SM -PL BR
     FM271400 31007KT 3SM -SN BR OVC006
     FM271800 28009G14KT 3SM -RASN BR OVC008
     FM272000 26009G15KT 6SM -RA BR OVC012
     FM272200 27008KT P6SM OVC015=

USA.gov is the U.S. government's official web portal to all federal, state and local government web resources and services.